Time;durP1;ratioP1;P1;durP2;ratioP2;P2;SDS_P1;SDS_P2;PMS_P1;PMS_P2;Temp;Humidity;BMP_temperature;BMP_pressure;BME280_temperature;BME280_humidity;BME280_pressure;Samples;Min_cycle;Max_cycle;Signal;HPM_P1;HPM_P2
2022/10/22 00:02:26;;;;;;;0.10;0.10;;;16.30;99.90;;;;;;6162196;23;20373;-84
2022/10/22 00:04:55;;;;;;;0.10;0.10;;;16.30;99.90;;;;;;6165769;23;20378;-82
2022/10/22 00:07:23;;;;;;;0.10;0.10;;;16.20;99.90;;;;;;6162733;23;20366;-82
2022/10/22 00:09:50;;;;;;;0.10;0.10;;;16.20;99.90;;;;;;6168600;23;20381;-82
2022/10/22 00:12:17;;;;;;;0.10;0.10;;;16.20;99.90;;;;;;6168171;23;20385;-82
2022/10/22 00:14:44;;;;;;;0.10;0.10;;;16.20;99.90;;;;;;6171819;23;20389;-82
2022/10/22 00:17:11;;;;;;;0.10;0.10;;;16.20;99.90;;;;;;6171877;23;20362;-82
2022/10/22 00:19:39;;;;;;;0.10;0.10;;;16.20;99.90;;;;;;6171446;23;20369;-82
2022/10/22 00:22:07;;;;;;;0.10;0.10;;;16.30;99.90;;;;;;6170421;23;20381;-82
2022/10/22 00:24:36;;;;;;;0.10;0.10;;;16.20;99.90;;;;;;6166238;23;20378;-82
2022/10/22 00:27:04;;;;;;;0.10;0.10;;;16.10;99.90;;;;;;6164550;23;20398;-82
2022/10/22 00:29:31;;;;;;;0.10;0.10;;;16.10;99.90;;;;;;6166582;23;20380;-82
2022/10/22 00:31:58;;;;;;;0.10;0.10;;;16.10;99.90;;;;;;6168332;23;20372;-82
2022/10/22 00:34:25;;;;;;;0.10;0.10;;;16.10;99.90;;;;;;6170432;23;20367;-81
2022/10/22 00:36:52;;;;;;;0.10;0.10;;;16.10;99.90;;;;;;6171585;23;20382;-82
2022/10/22 00:39:22;;;;;;;0.10;0.10;;;16.20;99.90;;;;;;6170325;23;20379;-82
2022/10/22 00:41:50;;;;;;;0.10;0.10;;;16.20;99.90;;;;;;6170473;23;20386;-81
2022/10/22 00:44:54;;;;;;;0.10;0.10;;;16.10;99.90;;;;;;6164688;23;20444;-80
2022/10/22 00:47:23;;;;;;;0.10;0.10;;;16.20;99.90;;;;;;6157752;23;20441;-81
2022/10/22 00:49:52;;;;;;;0.10;0.10;;;16.20;99.90;;;;;;6158044;23;20865;-82
2022/10/22 00:52:20;;;;;;;0.10;0.10;;;16.30;99.90;;;;;;6161117;23;20417;-82
2022/10/22 00:54:47;;;;;;;0.10;0.10;;;16.30;99.90;;;;;;6164504;23;20401;-82
2022/10/22 00:57:15;;;;;;;0.10;0.10;;;16.20;99.90;;;;;;6165316;23;20433;-83
2022/10/22 00:59:42;;;;;;;0.10;0.10;;;16.30;99.90;;;;;;6162444;23;20378;-83
2022/10/22 01:02:09;;;;;;;0.10;0.10;;;16.30;99.90;;;;;;6157368;23;20459;-82
2022/10/22 01:04:36;;;;;;;0.10;0.10;;;16.30;99.90;;;;;;6157215;23;20785;-82
2022/10/22 01:07:03;;;;;;;0.10;0.10;;;16.20;99.90;;;;;;6156784;23;20381;-82
2022/10/22 01:09:42;;;;;;;0.10;0.10;;;16.20;99.90;;;;;;6159529;23;20366;-82
2022/10/22 01:12:20;;;;;;;0.10;0.10;;;16.30;99.90;;;;;;6156177;23;20428;-82
2022/10/22 01:14:50;;;;;;;0.00;0.00;;;16.30;99.90;;;;;;6153245;23;20456;-82
2022/10/22 01:17:46;;;;;;;0.05;0.05;;;16.30;99.90;;;;;;6152821;23;20382;-82
2022/10/22 01:20:32;;;;;;;0.10;0.10;;;16.30;99.90;;;;;;6152015;23;20400;-81
2022/10/22 01:23:17;;;;;;;0.10;0.10;;;16.30;99.90;;;;;;6158682;23;20465;-82
2022/10/22 01:26:00;;;;;;;0.10;0.10;;;16.30;99.90;;;;;;6157065;23;20373;-82
2022/10/22 01:28:59;;;;;;;0.10;0.10;;;16.30;99.90;;;;;;6157723;23;20445;-82
2022/10/22 01:31:31;;;;;;;0.00;0.00;;;16.30;99.90;;;;;;6149063;23;20457;-81
2022/10/22 01:33:59;;;;;;;0.00;0.00;;;16.30;99.90;;;;;;6164326;23;20834;-82
2022/10/22 01:36:31;;;;;;;0.17;0.00;;;16.30;99.90;;;;;;6159719;23;20385;-81
2022/10/22 01:39:00;;;;;;;0.00;0.00;;;16.30;99.90;;;;;;6154969;23;20385;-81
2022/10/22 01:41:28;;;;;;;0.00;0.00;;;16.30;99.90;;;;;;6136806;23;20448;-81
2022/10/22 01:43:55;;;;;;;0.10;0.10;;;16.30;99.90;;;;;;6153610;23;20752;-81
2022/10/22 01:46:25;;;;;;;0.10;0.10;;;16.30;99.90;;;;;;6126994;23;20453;-81
2022/10/22 01:49:13;;;;;;;0.10;0.10;;;16.20;99.90;;;;;;6127774;23;20378;-81
2022/10/22 01:51:42;;;;;;;0.08;0.08;;;16.20;99.90;;;;;;6129836;23;20370;-82
2022/10/22 01:54:29;;;;;;;0.08;0.08;;;16.20;99.90;;;;;;6140091;23;20442;-82
2022/10/22 01:57:08;;;;;;;0.17;0.10;;;16.10;99.90;;;;;;6138324;23;20392;-81
2022/10/22 01:59:50;;;;;;;0.10;0.10;;;16.20;99.90;;;;;;6160898;23;20398;-81
2022/10/22 02:02:31;;;;;;;0.10;0.10;;;16.20;99.90;;;;;;6164486;23;20370;-82
2022/10/22 02:05:19;;;;;;;0.10;0.10;;;16.10;99.90;;;;;;6132429;23;20449;-82
2022/10/22 02:07:51;;;;;;;0.50;0.10;;;16.20;99.90;;;;;;6130203;23;20714;-82
2022/10/22 02:10:19;;;;;;;0.10;0.10;;;16.10;99.90;;;;;;6129771;23;20449;-81
2022/10/22 02:12:51;;;;;;;0.10;0.10;;;16.00;99.90;;;;;;6131805;23;20377;-82
2022/10/22 02:15:23;;;;;;;0.10;0.10;;;16.10;99.90;;;;;;6127567;23;20374;-83
2022/10/22 02:17:52;;;;;;;0.00;0.00;;;16.10;99.90;;;;;;6126070;23;20382;-82
2022/10/22 02:20:27;;;;;;;0.00;0.00;;;16.00;99.90;;;;;;6127112;23;20453;-82
2022/10/22 02:22:55;;;;;;;0.00;0.00;;;16.00;99.90;;;;;;6126202;23;20703;-82
2022/10/22 02:25:26;;;;;;;0.00;0.00;;;16.00;99.90;;;;;;6152442;23;20461;-83
2022/10/22 02:28:25;;;;;;;0.00;0.00;;;16.10;99.90;;;;;;6125976;23;20449;-82
2022/10/22 02:30:55;;;;;;;0.00;0.00;;;16.10;99.90;;;;;;6152203;23;20378;-83
2022/10/22 02:33:32;;;;;;;0.00;0.00;;;16.10;99.90;;;;;;6127016;23;20378;-82
2022/10/22 02:36:01;;;;;;;0.07;0.07;;;16.10;99.90;;;;;;6126246;23;20380;-82
2022/10/22 02:38:29;;;;;;;0.00;0.00;;;16.00;99.90;;;;;;6154549;23;20378;-82
2022/10/22 02:40:56;;;;;;;0.00;0.00;;;16.00;99.90;;;;;;6149820;23;20850;-83
2022/10/22 02:43:24;;;;;;;0.00;0.00;;;16.10;99.90;;;;;;6153306;23;20401;-83
2022/10/22 02:45:51;;;;;;;0.00;0.00;;;16.10;99.90;;;;;;6152196;23;20389;-82
2022/10/22 02:48:18;;;;;;;0.07;0.07;;;16.00;99.90;;;;;;6153416;23;20457;-83
2022/10/22 02:50:44;;;;;;;0.00;0.00;;;16.00;99.90;;;;;;6151568;23;20922;-82
2022/10/22 02:53:11;;;;;;;0.00;0.00;;;16.00;99.90;;;;;;6153369;23;20396;-83
2022/10/22 02:55:38;;;;;;;0.10;0.10;;;15.90;99.90;;;;;;6152303;23;20396;-82
2022/10/22 02:58:05;;;;;;;0.10;0.10;;;15.80;99.90;;;;;;6152985;23;20372;-82
2022/10/22 03:00:31;;;;;;;0.03;0.03;;;15.90;99.90;;;;;;6154507;23;20457;-82
2022/10/22 03:02:58;;;;;;;0.10;0.10;;;15.90;99.90;;;;;;6151990;23;20362;-82
2022/10/22 03:05:25;;;;;;;0.10;0.10;;;15.80;99.90;;;;;;6153051;23;20449;-82
2022/10/22 03:07:52;;;;;;;0.10;0.10;;;15.80;99.90;;;;;;6152071;23;20417;-82
2022/10/22 03:10:19;;;;;;;0.10;0.10;;;15.90;99.90;;;;;;6153111;23;20453;-82
2022/10/22 03:12:45;;;;;;;0.10;0.10;;;15.80;99.90;;;;;;6151448;23;20466;-82
2022/10/22 03:15:13;;;;;;;0.03;0.03;;;15.80;99.90;;;;;;6153057;23;20401;-82
2022/10/22 03:17:40;;;;;;;0.10;0.10;;;15.90;99.90;;;;;;6151943;23;20681;-83
2022/10/22 03:20:08;;;;;;;0.10;0.10;;;15.90;99.90;;;;;;6152986;23;20408;-83
2022/10/22 03:22:37;;;;;;;0.10;0.10;;;15.90;99.90;;;;;;6152440;23;20461;-83
2022/10/22 03:25:08;;;;;;;0.10;0.10;;;15.90;99.90;;;;;;6151993;23;20425;-83
2022/10/22 03:27:36;;;;;;;0.10;0.10;;;15.90;99.90;;;;;;6153874;23;20460;-83
2022/10/22 03:30:04;;;;;;;0.10;0.10;;;15.80;99.90;;;;;;6153479;23;20390;-83
2022/10/22 03:32:31;;;;;;;0.10;0.10;;;15.80;99.90;;;;;;6152992;23;20370;-83
2022/10/22 03:34:58;;;;;;;0.20;0.20;;;15.80;99.90;;;;;;6152087;23;20390;-83
2022/10/22 03:37:30;;;;;;;0.10;0.10;;;15.90;99.90;;;;;;6152489;23;20376;-83
2022/10/22 03:39:57;;;;;;;0.10;0.10;;;15.80;99.90;;;;;;6151741;23;20384;-83
2022/10/22 03:42:24;;;;;;;0.10;0.10;;;15.70;99.90;;;;;;6152067;23;20474;-83
2022/10/22 03:44:51;;;;;;;0.10;0.10;;;15.80;99.90;;;;;;6151892;23;20402;-83
2022/10/22 03:47:18;;;;;;;0.10;0.10;;;15.70;99.90;;;;;;6152521;23;20453;-82
2022/10/22 03:49:44;;;;;;;0.10;0.10;;;15.60;99.90;;;;;;6151755;23;20377;-83
2022/10/22 03:52:13;;;;;;;0.32;0.10;;;15.60;99.90;;;;;;6152373;23;20868;-82
2022/10/22 03:54:41;;;;;;;0.20;0.20;;;15.60;99.90;;;;;;6152644;23;20406;-82
2022/10/22 03:57:09;;;;;;;0.10;0.10;;;15.50;99.90;;;;;;6151764;23;20378;-82
2022/10/22 03:59:41;;;;;;;0.10;0.10;;;15.60;99.90;;;;;;6152618;23;20854;-83
2022/10/22 04:02:10;;;;;;;0.10;0.10;;;15.60;99.90;;;;;;6151356;23;20431;-83
2022/10/22 04:04:37;;;;;;;0.17;0.17;;;15.60;99.90;;;;;;6152724;23;20400;-83
2022/10/22 04:07:05;;;;;;;0.10;0.10;;;15.50;99.90;;;;;;6151347;23;20382;-83
2022/10/22 04:09:33;;;;;;;0.20;0.20;;;15.50;99.90;;;;;;6152677;23;20786;-83
2022/10/22 04:12:00;;;;;;;0.10;0.10;;;15.50;99.90;;;;;;6151467;23;20711;-83
2022/10/22 04:14:27;;;;;;;0.10;0.10;;;15.50;99.90;;;;;;6152435;23;20397;-83
2022/10/22 04:16:54;;;;;;;0.10;0.10;;;15.50;99.90;;;;;;6151607;23;20465;-83
2022/10/22 04:19:21;;;;;;;0.25;0.10;;;15.60;99.90;;;;;;6152237;23;20374;-80
2022/10/22 04:21:48;;;;;;;0.10;0.10;;;15.60;99.90;;;;;;6152911;23;20409;-82
2022/10/22 04:24:15;;;;;;;0.10;0.10;;;15.60;99.90;;;;;;6151742;23;20464;-82
2022/10/22 04:26:42;;;;;;;0.20;0.20;;;15.50;99.90;;;;;;6152048;23;20386;-82
2022/10/22 04:29:09;;;;;;;0.17;0.17;;;15.50;99.90;;;;;;6151203;23;20404;-82
2022/10/22 04:31:41;;;;;;;0.20;0.20;;;15.50;99.90;;;;;;6153790;23;20780;-82
2022/10/22 04:34:08;;;;;;;0.10;0.10;;;15.50;99.90;;;;;;6151267;23;20465;-82
2022/10/22 04:36:35;;;;;;;0.10;0.10;;;15.50;99.90;;;;;;6153343;23;20445;-82
2022/10/22 04:39:03;;;;;;;0.50;0.20;;;15.60;99.90;;;;;;6150769;23;20396;-82
2022/10/22 04:41:35;;;;;;;0.10;0.10;;;15.60;99.90;;;;;;6127396;23;20385;-82
2022/10/22 04:44:03;;;;;;;0.10;0.10;;;15.60;99.90;;;;;;6126618;23;20453;-82
2022/10/22 04:46:32;;;;;;;0.10;0.10;;;15.50;99.90;;;;;;6127543;23;20429;-82
2022/10/22 04:48:59;;;;;;;0.10;0.10;;;15.50;99.90;;;;;;6151932;23;20400;-82
2022/10/22 04:51:26;;;;;;;0.10;0.10;;;15.60;99.90;;;;;;6127929;23;20380;-82
2022/10/22 04:53:53;;;;;;;0.10;0.10;;;15.60;99.90;;;;;;6126541;23;20428;-82
2022/10/22 04:56:27;;;;;;;0.10;0.10;;;15.50;99.90;;;;;;6127655;23;20695;-83
2022/10/22 04:59:00;;;;;;;0.10;0.10;;;15.50;99.90;;;;;;6126502;23;20450;-82
2022/10/22 05:01:29;;;;;;;0.10;0.10;;;15.50;99.90;;;;;;6127341;23;20418;-82
2022/10/22 05:03:59;;;;;;;0.10;0.10;;;15.60;99.90;;;;;;6126498;23;20386;-82
2022/10/22 05:06:27;;;;;;;0.10;0.10;;;15.60;99.90;;;;;;6127061;23;20374;-83
2022/10/22 05:08:57;;;;;;;0.10;0.10;;;15.60;99.90;;;;;;6150957;23;20457;-82
2022/10/22 05:11:34;;;;;;;0.10;0.10;;;15.60;99.90;;;;;;6127614;23;20380;-83
2022/10/22 05:14:03;;;;;;;0.60;0.20;;;15.60;99.90;;;;;;6126545;23;20401;-83
2022/10/22 05:16:31;;;;;;;0.10;0.10;;;15.50;99.90;;;;;;6127781;23;20457;-82
2022/10/22 05:19:00;;;;;;;0.10;0.10;;;15.50;99.90;;;;;;6126163;23;20706;-82
2022/10/22 05:21:28;;;;;;;0.10;0.10;;;15.50;99.90;;;;;;6127567;23;20385;-82
2022/10/22 05:23:58;;;;;;;0.10;0.10;;;15.50;99.90;;;;;;6126579;23;20401;-82
2022/10/22 05:26:27;;;;;;;0.10;0.10;;;15.50;99.90;;;;;;6127338;23;20462;-82
2022/10/22 05:28:54;;;;;;;0.10;0.10;;;15.40;99.90;;;;;;6126254;23;20375;-82
2022/10/22 05:31:21;;;;;;;0.10;0.10;;;15.40;99.90;;;;;;6126961;23;20374;-82
2022/10/22 05:33:47;;;;;;;0.10;0.10;;;15.40;99.90;;;;;;6127562;23;20382;-82
2022/10/22 05:36:19;;;;;;;0.10;0.10;;;15.50;99.90;;;;;;6126305;23;20385;-82
2022/10/22 05:38:47;;;;;;;0.10;0.10;;;15.50;99.90;;;;;;6126958;23;20420;-82
2022/10/22 05:41:20;;;;;;;0.10;0.10;;;15.50;99.90;;;;;;6151692;23;20373;-82
2022/10/22 05:43:47;;;;;;;0.10;0.10;;;15.40;99.90;;;;;;6126975;23;20408;-82
2022/10/22 05:46:18;;;;;;;0.10;0.10;;;15.40;99.90;;;;;;6126468;23;20751;-82
2022/10/22 05:48:54;;;;;;;0.10;0.10;;;15.40;99.90;;;;;;6127758;23;20382;-82
2022/10/22 05:51:21;;;;;;;0.10;0.10;;;15.40;99.90;;;;;;6126592;23;20450;-82
2022/10/22 05:53:52;;;;;;;0.10;0.10;;;15.40;99.90;;;;;;6127051;23;20450;-82
2022/10/22 05:56:19;;;;;;;0.10;0.10;;;15.40;99.90;;;;;;6126416;23;20842;-82
2022/10/22 05:58:46;;;;;;;0.10;0.10;;;15.50;99.90;;;;;;6152329;23;20441;-82
2022/10/22 06:01:22;;;;;;;0.10;0.10;;;15.40;99.90;;;;;;6125997;23;20378;-82
2022/10/22 06:03:53;;;;;;;0.10;0.10;;;15.50;99.90;;;;;;6126925;23;20461;-82
2022/10/22 06:06:32;;;;;;;0.10;0.10;;;15.40;99.90;;;;;;6125820;23;20400;-82
2022/10/22 06:09:25;;;;;;;0.10;0.10;;;15.40;99.90;;;;;;6125684;23;20378;-82
2022/10/22 06:11:52;;;;;;;0.10;0.10;;;15.40;99.90;;;;;;6127886;23;20754;-82
2022/10/22 06:14:19;;;;;;;0.10;0.10;;;15.40;99.90;;;;;;6128299;23;20374;-82
2022/10/22 06:16:47;;;;;;;0.10;0.10;;;15.40;99.90;;;;;;6128933;23;20413;-82
2022/10/22 06:19:16;;;;;;;0.10;0.10;;;15.40;99.90;;;;;;6152430;23;20373;-82
2022/10/22 06:21:43;;;;;;;0.10;0.10;;;15.40;99.90;;;;;;6128820;23;20457;-82
2022/10/22 06:24:11;;;;;;;0.10;0.10;;;15.50;99.90;;;;;;6152110;23;20444;-82
2022/10/22 06:26:38;;;;;;;0.10;0.10;;;15.50;99.90;;;;;;6128736;23;20392;-82
2022/10/22 06:29:05;;;;;;;0.10;0.10;;;15.50;99.90;;;;;;6127499;23;20388;-82
2022/10/22 06:31:38;;;;;;;0.10;0.10;;;15.50;99.90;;;;;;6128592;23;20712;-82
2022/10/22 06:34:07;;;;;;;0.10;0.10;;;15.50;99.90;;;;;;6127243;23;20390;-82
2022/10/22 06:36:34;;;;;;;0.00;0.00;;;15.60;99.90;;;;;;6153095;23;20366;-83
2022/10/22 06:39:02;;;;;;;0.10;0.10;;;15.60;99.90;;;;;;6127288;23;20448;-82
2022/10/22 06:41:28;;;;;;;0.10;0.10;;;15.60;99.90;;;;;;6128761;23;20366;-82
2022/10/22 06:43:56;;;;;;;0.10;0.10;;;15.60;99.90;;;;;;6128237;23;20376;-82
2022/10/22 06:46:24;;;;;;;0.10;0.10;;;15.60;99.90;;;;;;6127714;23;20382;-82
2022/10/22 06:48:54;;;;;;;0.10;0.10;;;15.60;99.90;;;;;;6154082;23;20404;-82
2022/10/22 06:51:21;;;;;;;0.10;0.10;;;15.60;99.90;;;;;;6127738;23;20445;-81
2022/10/22 06:53:48;;;;;;;0.10;0.10;;;15.70;99.90;;;;;;6128082;23;20381;-82
2022/10/22 06:56:17;;;;;;;0.10;0.10;;;15.60;99.90;;;;;;6127632;23;20377;-82
2022/10/22 06:58:49;;;;;;;0.10;0.10;;;15.70;99.90;;;;;;6128194;23;20453;-82
2022/10/22 07:01:17;;;;;;;0.10;0.10;;;15.60;99.90;;;;;;6127943;23;20699;-82
2022/10/22 07:03:45;;;;;;;0.10;0.10;;;15.70;99.90;;;;;;6128272;23;20382;-82
2022/10/22 07:06:13;;;;;;;0.10;0.10;;;15.70;99.90;;;;;;6127390;23;20418;-82
2022/10/22 07:08:41;;;;;;;0.10;0.10;;;15.80;99.90;;;;;;6128722;23;20441;-82
2022/10/22 07:11:17;;;;;;;0.10;0.10;;;15.80;99.90;;;;;;6127175;23;20385;-82
2022/10/22 07:13:45;;;;;;;0.10;0.10;;;15.90;99.90;;;;;;6128384;23;20394;-82
2022/10/22 07:16:13;;;;;;;0.10;0.10;;;16.00;99.90;;;;;;6127389;23;20382;-81
2022/10/22 07:18:41;;;;;;;0.10;0.10;;;15.90;99.90;;;;;;6128312;23;20412;-82
2022/10/22 07:21:09;;;;;;;0.10;0.10;;;15.90;99.90;;;;;;6127356;23;20370;-82
2022/10/22 07:23:36;;;;;;;0.10;0.10;;;15.90;99.90;;;;;;6128294;23;20975;-82
2022/10/22 07:26:06;;;;;;;0.10;0.10;;;16.00;99.90;;;;;;6127224;23;20465;-81
2022/10/22 07:28:38;;;;;;;0.10;0.10;;;16.10;99.90;;;;;;6128033;23;20889;-82
2022/10/22 07:31:07;;;;;;;0.00;0.00;;;16.20;99.90;;;;;;6127472;23;20385;-81
2022/10/22 07:33:35;;;;;;;0.03;0.03;;;16.20;99.90;;;;;;6153615;23;20424;-82
2022/10/22 07:36:05;;;;;;;0.10;0.10;;;16.40;99.90;;;;;;6127459;23;20445;-81
2022/10/22 07:38:33;;;;;;;0.10;0.10;;;16.40;99.90;;;;;;6128409;23;20456;-82
2022/10/22 07:41:01;;;;;;;0.10;0.10;;;16.50;99.90;;;;;;6150857;23;20413;-82
2022/10/22 07:43:27;;;;;;;0.00;0.00;;;16.50;99.90;;;;;;6152158;23;20479;-82
2022/10/22 07:45:54;;;;;;;0.10;0.10;;;16.50;99.90;;;;;;6152643;23;21005;-82
2022/10/22 07:48:22;;;;;;;0.00;0.00;;;16.50;99.90;;;;;;6152120;23;20405;-82
2022/10/22 07:50:50;;;;;;;0.10;0.10;;;16.50;99.90;;;;;;6152565;23;20374;-82
2022/10/22 07:53:17;;;;;;;0.10;0.10;;;16.60;99.90;;;;;;6151483;23;20765;-82
2022/10/22 07:55:48;;;;;;;0.00;0.00;;;16.60;99.90;;;;;;6151943;23;20374;-82
2022/10/22 07:58:15;;;;;;;0.00;0.00;;;16.70;99.90;;;;;;6151751;23;20707;-82
2022/10/22 08:00:43;;;;;;;0.00;0.00;;;16.60;99.90;;;;;;6152395;23;20374;-83
2022/10/22 08:03:11;;;;;;;0.00;0.00;;;16.70;99.90;;;;;;6151874;23;20398;-82
2022/10/22 08:05:42;;;;;;;0.00;0.00;;;16.80;99.90;;;;;;6128330;23;20755;-83
2022/10/22 08:08:10;;;;;;;0.00;0.00;;;16.90;99.90;;;;;;6153137;23;20382;-84
2022/10/22 08:10:38;;;;;;;0.10;0.10;;;17.00;99.90;;;;;;6152344;23;20419;-83
2022/10/22 08:13:05;;;;;;;0.00;0.00;;;17.00;99.90;;;;;;6151602;23;20473;-82
2022/10/22 08:15:33;;;;;;;0.00;0.00;;;16.90;99.90;;;;;;6152297;23;20449;-82
2022/10/22 08:18:00;;;;;;;0.00;0.00;;;17.10;99.90;;;;;;6152636;23;20703;-83
2022/10/22 08:20:27;;;;;;;0.00;0.00;;;17.10;99.90;;;;;;6151199;23;20449;-83
2022/10/22 08:22:53;;;;;;;0.00;0.00;;;17.10;99.90;;;;;;6128175;23;20393;-83
2022/10/22 08:25:20;;;;;;;0.00;0.00;;;17.20;99.90;;;;;;6151701;23;20437;-83
2022/10/22 08:27:47;;;;;;;0.00;0.00;;;17.40;99.90;;;;;;6152099;23;20389;-82
2022/10/22 08:30:15;;;;;;;0.00;0.00;;;17.40;99.90;;;;;;6151435;23;20400;-82
2022/10/22 08:32:42;;;;;;;0.00;0.00;;;17.50;99.90;;;;;;6152666;23;20373;-83
2022/10/22 08:35:09;;;;;;;0.00;0.00;;;17.50;99.90;;;;;;6151150;23;20389;-83
2022/10/22 08:37:39;;;;;;;0.40;0.10;;;17.60;99.90;;;;;;6152239;23;20366;-82
2022/10/22 08:40:08;;;;;;;0.00;0.00;;;17.70;99.90;;;;;;6151301;23;20680;-82
2022/10/22 08:42:58;;;;;;;0.00;0.00;;;17.90;99.90;;;;;;6153293;23;20769;-83
2022/10/22 08:45:58;;;;;;;0.00;0.00;;;18.00;99.90;;;;;;6151198;23;20457;-83
2022/10/22 08:48:33;;;;;;;0.00;0.00;;;18.00;99.90;;;;;;6143018;23;20404;-82
2022/10/22 08:51:00;;;;;;;0.05;0.05;;;18.20;99.90;;;;;;6151726;23;20456;-83
2022/10/22 08:53:40;;;;;;;0.00;0.00;;;18.20;99.90;;;;;;6151420;23;20392;-83
2022/10/22 08:56:07;;;;;;;0.10;0.10;;;18.30;99.90;;;;;;6150173;23;20449;-84
2022/10/22 08:58:42;;;;;;;0.00;0.00;;;18.20;99.90;;;;;;6152058;23;20386;-85
2022/10/22 09:01:16;;;;;;;0.00;0.00;;;18.10;99.90;;;;;;6151315;23;20380;-84
2022/10/22 09:04:11;;;;;;;0.00;0.00;;;18.20;99.90;;;;;;6152287;23;20393;-85
2022/10/22 09:06:40;;;;;;;0.10;0.10;;;18.40;99.90;;;;;;6152279;23;20374;-85
2022/10/22 09:09:13;;;;;;;0.00;0.00;;;18.50;99.90;;;;;;6152152;23;20401;-85
2022/10/22 09:11:44;;;;;;;0.00;0.00;;;18.30;99.90;;;;;;6151052;23;20366;-84
2022/10/22 09:14:15;;;;;;;0.30;0.10;;;18.40;99.90;;;;;;6153457;23;20950;-85
2022/10/22 09:16:50;;;;;;;0.00;0.00;;;18.50;99.90;;;;;;6151615;23;20917;-84
2022/10/22 09:19:33;;;;;;;0.20;0.10;;;18.40;99.90;;;;;;6152166;23;20445;-85
2022/10/22 09:22:23;;;;;;;0.00;0.00;;;18.40;99.90;;;;;;6151446;23;20372;-85
2022/10/22 09:25:12;;;;;;;0.08;0.08;;;18.40;99.90;;;;;;6152143;23;20374;-85
2022/10/22 09:27:39;;;;;;;0.00;0.00;;;18.50;99.90;;;;;;6148277;23;20414;-84
2022/10/22 09:30:15;;;;;;;0.00;0.00;;;18.60;99.90;;;;;;6153270;23;20378;-85
2022/10/22 09:32:42;;;;;;;0.28;0.28;;;18.60;99.90;;;;;;6150692;23;20401;-84
2022/10/22 09:35:12;;;;;;;0.30;0.30;;;18.30;99.90;;;;;;6127313;23;20370;-86
2022/10/22 09:37:52;;;;;;;0.10;0.10;;;18.40;99.90;;;;;;6151836;23;20396;-85
2022/10/22 09:40:21;;;;;;;0.10;0.10;;;18.40;99.90;;;;;;6152888;23;20469;-86
2022/10/22 09:42:48;;;;;;;0.00;0.00;;;18.20;99.90;;;;;;6126549;23;20405;-85
2022/10/22 09:45:19;;;;;;;0.10;0.10;;;18.40;99.90;;;;;;6127477;23;20374;-86
2022/10/22 09:47:47;;;;;;;0.10;0.10;;;18.40;99.90;;;;;;6126726;23;20715;-84
2022/10/22 09:50:38;;;;;;;0.10;0.10;;;18.50;99.90;;;;;;6152987;23;20401;-85
2022/10/22 09:53:15;;;;;;;0.10;0.10;;;18.70;99.90;;;;;;6126593;23;20366;-85
2022/10/22 09:55:43;;;;;;;0.00;0.00;;;18.80;99.90;;;;;;6126281;23;20380;-85
2022/10/22 09:58:12;;;;;;;0.10;0.10;;;18.60;99.90;;;;;;6127539;23;20446;-85
2022/10/22 10:00:43;;;;;;;0.00;0.00;;;18.60;99.90;;;;;;6127534;23;20452;-85
2022/10/22 10:03:22;;;;;;;0.10;0.10;;;18.80;99.90;;;;;;6152191;23;20816;-86
2022/10/22 10:05:56;;;;;;;0.00;0.00;;;19.00;99.90;;;;;;6152043;23;20402;-85
2022/10/22 10:08:28;;;;;;;0.00;0.00;;;19.00;99.90;;;;;;6128286;23;20397;-85
2022/10/22 10:11:05;;;;;;;0.00;0.00;;;18.90;99.90;;;;;;6126067;23;20458;-85
2022/10/22 10:13:44;;;;;;;0.00;0.00;;;19.10;99.90;;;;;;6126910;23;20416;-85
2022/10/22 10:16:38;;;;;;;0.00;0.00;;;19.20;99.90;;;;;;6126233;23;20798;-85
2022/10/22 10:19:16;;;;;;;0.00;0.00;;;19.10;99.90;;;;;;6114994;23;20460;-85
2022/10/22 10:22:08;;;;;;;0.08;0.00;;;19.20;99.90;;;;;;6127000;23;20378;-85
2022/10/22 10:24:51;;;;;;;0.10;0.03;;;19.30;99.90;;;;;;6125925;23;20441;-85
2022/10/22 10:27:31;;;;;;;0.00;0.00;;;19.40;99.90;;;;;;6126085;23;20453;-84
2022/10/22 10:30:16;;;;;;;0.00;0.00;;;19.50;99.90;;;;;;6126890;23;20370;-85
2022/10/22 10:32:56;;;;;;;0.30;0.00;;;19.40;99.90;;;;;;6126373;23;20696;-85
2022/10/22 10:35:53;;;;;;;0.00;0.00;;;19.40;99.90;;;;;;6126148;23;20394;-85
2022/10/22 10:38:49;;;;;;;0.00;0.00;;;19.40;99.90;;;;;;6125962;23;20389;-86
2022/10/22 10:41:34;;;;;;;0.00;0.00;;;19.80;99.90;;;;;;6097715;23;20376;-86
2022/10/22 10:44:13;;;;;;;0.00;0.00;;;20.00;99.90;;;;;;6121113;23;20363;-85
2022/10/22 10:46:58;;;;;;;0.10;0.00;;;20.10;99.90;;;;;;6096770;23;20372;-86
2022/10/22 10:49:31;;;;;;;0.20;0.00;;;19.80;98.50;;;;;;6123347;23;20391;-85
2022/10/22 10:52:12;;;;;;;0.00;0.00;;;20.00;99.90;;;;;;6096607;23;20406;-85
2022/10/22 10:54:53;;;;;;;0.00;0.00;;;20.10;99.90;;;;;;6098340;23;20380;-86
2022/10/22 10:57:22;;;;;;;0.00;0.00;;;20.10;99.90;;;;;;6096878;23;20395;-84
2022/10/22 11:00:19;;;;;;;0.00;0.00;;;20.20;99.90;;;;;;6098255;23;20380;-84
2022/10/22 11:03:07;;;;;;;0.00;0.00;;;20.30;96.90;;;;;;6100752;23;20410;-83
2022/10/22 11:05:55;;;;;;;0.10;0.00;;;20.60;94.30;;;;;;6099817;23;20455;-82
2022/10/22 11:08:48;;;;;;;0.00;0.00;;;20.90;95.00;;;;;;6099342;23;20048;-83
2022/10/22 11:11:17;;;;;;;;;;;21.10;91.40;;;;;;6125805;23;20185;-83
2022/10/22 11:13:49;;;;;;;;;;;21.30;90.00;;;;;;6101062;23;19916;-83
2022/10/22 11:16:19;;;;;;;;;;;21.20;87.90;;;;;;6100049;23;19949;-83
2022/10/22 11:19:10;;;;;;;;;;;21.20;89.50;;;;;;6101236;23;20269;-84
2022/10/22 11:21:54;;;;;;;;;;;21.40;86.10;;;;;;6125715;23;20367;-83
2022/10/22 11:24:29;;;;;;;;;;;21.40;86.30;;;;;;6099743;23;19916;-83
2022/10/22 11:27:19;;;;;;;;;;;21.50;88.30;;;;;;6100634;23;19988;-82
2022/10/22 11:29:49;;;;;;;;;;;21.90;82.20;;;;;;6100295;23;19921;-83
2022/10/22 11:32:21;;;;;;;;;;;22.10;83.90;;;;;;6100303;23;20314;-83
2022/10/22 11:34:49;;;;;;;;;;;22.30;84.10;;;;;;6100186;23;19959;-83
2022/10/22 11:37:16;;;;;;;;;;;22.20;76.50;;;;;;6099697;23;19999;-83
2022/10/22 11:40:01;;;;;;;;;;;22.30;80.10;;;;;;6118714;23;19999;-84
2022/10/22 11:42:33;;;;;;;;;;;22.50;82.60;;;;;;6152936;23;19991;-84
2022/10/22 11:45:02;;;;;;;;;;;22.70;74.30;;;;;;6153910;23;19955;-83
2022/10/22 11:47:33;;;;;;;;;;;22.30;71.80;;;;;;6152777;23;19931;-84
2022/10/22 11:50:19;;;;;;;;;;;22.00;72.50;;;;;;6153804;23;19917;-83
2022/10/22 11:53:02;;;;;;;;;;;22.10;74.50;;;;;;6154599;23;19917;-85
2022/10/22 11:56:14;;;;;;;;;;;22.40;74.80;;;;;;6153279;23;19917;-84
2022/10/22 11:58:43;;;;;;;;;;;22.40;70.30;;;;;;6151978;23;19948;-84
2022/10/22 12:01:10;;;;;;;;;;;22.40;72.30;;;;;;6154737;23;19923;-85
2022/10/22 12:03:40;;;;;;;;;;;22.60;75.50;;;;;;6153840;23;20257;-83
2022/10/22 12:06:17;;;;;;;;;;;22.60;70.60;;;;;;6154530;23;19959;-84
2022/10/22 12:08:43;;;;;;;;;;;22.70;70.10;;;;;;6149337;23;19916;-84
2022/10/22 12:11:10;;;;;;;;;;;22.60;70.60;;;;;;6149779;23;19927;-84
2022/10/22 12:13:57;;;;;;;;;;;22.40;72.50;;;;;;6152293;23;19920;-85
2022/10/22 12:16:44;;;;;;;;;;;22.70;72.70;;;;;;6153273;23;20015;-84
2022/10/22 12:19:28;;;;;;;;;;;23.10;70.20;;;;;;6152670;23;20397;-84
2022/10/22 12:22:01;;;;;;;;;;;22.90;69.40;;;;;;6153512;23;19916;-84
2022/10/22 12:24:30;;;;;;;;;;;23.00;72.30;;;;;;6152656;23;19931;-85
2022/10/22 12:26:56;;;;;;;;;;;23.20;69.40;;;;;;6153073;23;20253;-85
2022/10/22 12:29:25;;;;;;;;;;;23.40;68.50;;;;;;6152523;23;19925;-85
2022/10/22 12:31:52;;;;;;;;;;;23.20;68.50;;;;;;6153339;23;20230;-84
2022/10/22 12:34:23;;;;;;;;;;;23.20;68.50;;;;;;6152208;23;19917;-84
2022/10/22 12:36:51;;;;;;;;;;;23.50;66.60;;;;;;6152824;23;19952;-84
2022/10/22 12:39:21;;;;;;;;;;;23.10;69.30;;;;;;6151872;23;19916;-84
2022/10/22 12:41:48;;;;;;;;;;;23.10;67.70;;;;;;6152924;23;19999;-83
2022/10/22 12:44:16;;;;;;;;;;;23.30;67.20;;;;;;6176395;23;19923;-84
2022/10/22 12:46:44;;;;;;;;;;;23.10;68.50;;;;;;6152779;23;20003;-85
2022/10/22 12:49:19;;;;;;;;;;;23.50;67.80;;;;;;6153242;23;19916;-85
2022/10/22 12:51:46;;;;;;;;;;;23.70;65.30;;;;;;6152634;23;19916;-85
2022/10/22 12:54:18;;;;;;;;;;;24.10;64.70;;;;;;6151886;23;19923;-84
2022/10/22 12:56:46;;;;;;;;;;;24.10;62.80;;;;;;6152643;23;20409;-85
2022/10/22 12:59:16;;;;;;;;;;;24.10;63.40;;;;;;6152282;23;19923;-84
2022/10/22 13:01:43;;;;;;;;;;;24.30;61.70;;;;;;6152949;23;20274;-84
2022/10/22 13:04:16;;;;;;;;;;;24.10;62.00;;;;;;6153509;23;19995;-85
2022/10/22 13:06:43;;;;;;;;;;;24.20;62.60;;;;;;6152549;23;19916;-84
2022/10/22 13:09:18;;;;;;;;;;;24.40;61.20;;;;;;6153094;23;19928;-84
2022/10/22 13:12:17;;;;;;;;;;;24.20;60.10;;;;;;6153126;23;19916;-85
2022/10/22 13:14:45;;;;;;;;;;;24.10;62.90;;;;;;6152141;23;19916;-84
2022/10/22 13:17:19;;;;;;;;;;;24.30;61.80;;;;;;6152552;23;19999;-84
2022/10/22 13:19:48;;;;;;;;;;;24.50;61.00;;;;;;6151853;23;19922;-85
2022/10/22 13:22:24;;;;;;;;;;;23.70;61.90;;;;;;6154083;23;19991;-82
2022/10/22 13:24:51;;;;;;;;;;;23.50;62.90;;;;;;6154010;23;19920;-85
2022/10/22 13:27:18;;;;;;;;;;;23.60;63.90;;;;;;6153909;23;19948;-82